sensor_id;sensor_type;location;lat;lon;timestamp;temperature;humidity
42031;DHT22;27709;52.036;5.906;2023-08-30T00:00:40;14.50;97.70
42031;DHT22;27709;52.036;5.906;2023-08-30T00:03:06;14.50;97.70
42031;DHT22;27709;52.036;5.906;2023-08-30T00:05:31;14.50;97.70
42031;DHT22;27709;52.036;5.906;2023-08-30T00:07:57;14.60;97.80
42031;DHT22;27709;52.036;5.906;2023-08-30T00:10:22;14.60;97.80
42031;DHT22;27709;52.036;5.906;2023-08-30T00:12:48;14.70;97.90
42031;DHT22;27709;52.036;5.906;2023-08-30T00:15:14;14.70;97.90
42031;DHT22;27709;52.036;5.906;2023-08-30T00:17:39;14.70;98.10
42031;DHT22;27709;52.036;5.906;2023-08-30T00:20:05;14.70;98.20
42031;DHT22;27709;52.036;5.906;2023-08-30T00:22:32;14.80;98.20
42031;DHT22;27709;52.036;5.906;2023-08-30T00:24:58;14.80;98.20
42031;DHT22;27709;52.036;5.906;2023-08-30T00:27:23;14.80;98.20
42031;DHT22;27709;52.036;5.906;2023-08-30T00:29:49;14.90;98.30
42031;DHT22;27709;52.036;5.906;2023-08-30T00:32:14;14.90;98.40
42031;DHT22;27709;52.036;5.906;2023-08-30T00:34:40;15.00;98.50
42031;DHT22;27709;52.036;5.906;2023-08-30T00:37:05;15.10;98.50
42031;DHT22;27709;52.036;5.906;2023-08-30T00:39:31;15.10;98.60
42031;DHT22;27709;52.036;5.906;2023-08-30T00:41:56;15.20;98.60
42031;DHT22;27709;52.036;5.906;2023-08-30T00:44:22;15.30;98.60
42031;DHT22;27709;52.036;5.906;2023-08-30T00:46:49;15.30;98.60
42031;DHT22;27709;52.036;5.906;2023-08-30T00:49:15;15.30;98.60
42031;DHT22;27709;52.036;5.906;2023-08-30T00:51:40;15.40;98.50
42031;DHT22;27709;52.036;5.906;2023-08-30T00:54:06;15.40;98.50
42031;DHT22;27709;52.036;5.906;2023-08-30T00:56:32;15.40;98.40
42031;DHT22;27709;52.036;5.906;2023-08-30T00:58:59;15.40;98.40
42031;DHT22;27709;52.036;5.906;2023-08-30T01:01:25;15.30;98.30
42031;DHT22;27709;52.036;5.906;2023-08-30T01:03:51;15.30;98.30
42031;DHT22;27709;52.036;5.906;2023-08-30T01:06:16;15.20;98.20
42031;DHT22;27709;52.036;5.906;2023-08-30T01:08:42;15.20;98.10
42031;DHT22;27709;52.036;5.906;2023-08-30T01:13:58;15.00;98.20
42031;DHT22;27709;52.036;5.906;2023-08-30T01:16:25;15.00;98.20
42031;DHT22;27709;52.036;5.906;2023-08-30T01:18:55;14.90;98.30
42031;DHT22;27709;52.036;5.906;2023-08-30T01:21:50;14.90;98.40
42031;DHT22;27709;52.036;5.906;2023-08-30T01:24:28;14.90;98.20
42031;DHT22;27709;52.036;5.906;2023-08-30T01:27:13;14.80;98.30
42031;DHT22;27709;52.036;5.906;2023-08-30T01:29:43;14.80;98.30
42031;DHT22;27709;52.036;5.906;2023-08-30T01:32:10;14.80;98.20
42031;DHT22;27709;52.036;5.906;2023-08-30T01:34:38;14.70;98.20
42031;DHT22;27709;52.036;5.906;2023-08-30T01:37:06;14.70;98.30
42031;DHT22;27709;52.036;5.906;2023-08-30T01:39:34;14.70;98.40
42031;DHT22;27709;52.036;5.906;2023-08-30T01:42:01;14.60;98.30
42031;DHT22;27709;52.036;5.906;2023-08-30T01:44:28;14.60;98.40
42031;DHT22;27709;52.036;5.906;2023-08-30T01:46:55;14.60;98.50
42031;DHT22;27709;52.036;5.906;2023-08-30T01:49:21;14.50;98.50
42031;DHT22;27709;52.036;5.906;2023-08-30T01:51:48;14.50;98.50
42031;DHT22;27709;52.036;5.906;2023-08-30T01:54:17;14.50;98.60
42031;DHT22;27709;52.036;5.906;2023-08-30T01:56:44;14.50;98.70
42031;DHT22;27709;52.036;5.906;2023-08-30T01:59:09;14.50;98.80
42031;DHT22;27709;52.036;5.906;2023-08-30T02:01:35;14.50;98.80
42031;DHT22;27709;52.036;5.906;2023-08-30T02:04:00;14.60;98.80
42031;DHT22;27709;52.036;5.906;2023-08-30T02:06:38;14.60;98.70
42031;DHT22;27709;52.036;5.906;2023-08-30T02:09:09;14.60;98.60
42031;DHT22;27709;52.036;5.906;2023-08-30T02:11:40;14.70;98.60
42031;DHT22;27709;52.036;5.906;2023-08-30T02:14:10;14.70;98.60
42031;DHT22;27709;52.036;5.906;2023-08-30T02:16:37;14.80;98.60
42031;DHT22;27709;52.036;5.906;2023-08-30T02:19:04;14.80;98.70
42031;DHT22;27709;52.036;5.906;2023-08-30T02:21:31;14.80;98.70
42031;DHT22;27709;52.036;5.906;2023-08-30T02:23:56;14.90;98.60
42031;DHT22;27709;52.036;5.906;2023-08-30T02:26:22;14.90;98.50
42031;DHT22;27709;52.036;5.906;2023-08-30T02:28:47;14.90;98.40
42031;DHT22;27709;52.036;5.906;2023-08-30T02:31:13;15.00;98.40
42031;DHT22;27709;52.036;5.906;2023-08-30T02:33:38;15.00;98.40
42031;DHT22;27709;52.036;5.906;2023-08-30T02:36:04;15.00;98.30
42031;DHT22;27709;52.036;5.906;2023-08-30T02:38:30;15.00;98.30
42031;DHT22;27709;52.036;5.906;2023-08-30T02:40:55;15.10;98.30
42031;DHT22;27709;52.036;5.906;2023-08-30T02:43:22;15.10;98.20
42031;DHT22;27709;52.036;5.906;2023-08-30T02:45:47;15.20;98.10
42031;DHT22;27709;52.036;5.906;2023-08-30T02:48:14;15.20;98.00
42031;DHT22;27709;52.036;5.906;2023-08-30T02:50:39;15.30;98.00
42031;DHT22;27709;52.036;5.906;2023-08-30T02:53:05;15.30;97.90
42031;DHT22;27709;52.036;5.906;2023-08-30T02:55:34;15.30;97.90
42031;DHT22;27709;52.036;5.906;2023-08-30T02:57:59;15.30;97.70
42031;DHT22;27709;52.036;5.906;2023-08-30T03:00:25;15.30;97.70
42031;DHT22;27709;52.036;5.906;2023-08-30T03:02:50;15.40;97.80
42031;DHT22;27709;52.036;5.906;2023-08-30T03:05:17;15.40;97.70
42031;DHT22;27709;52.036;5.906;2023-08-30T03:07:42;15.40;97.60
42031;DHT22;27709;52.036;5.906;2023-08-30T03:10:08;15.40;97.50
42031;DHT22;27709;52.036;5.906;2023-08-30T03:12:34;15.40;97.40
42031;DHT22;27709;52.036;5.906;2023-08-30T03:15:00;15.40;97.50
42031;DHT22;27709;52.036;5.906;2023-08-30T03:17:25;15.40;97.40
42031;DHT22;27709;52.036;5.906;2023-08-30T03:19:54;15.40;97.30
42031;DHT22;27709;52.036;5.906;2023-08-30T03:22:19;15.50;97.10
42031;DHT22;27709;52.036;5.906;2023-08-30T03:24:45;15.50;97.10
42031;DHT22;27709;52.036;5.906;2023-08-30T03:27:10;15.50;97.00
42031;DHT22;27709;52.036;5.906;2023-08-30T03:29:36;15.50;96.80
42031;DHT22;27709;52.036;5.906;2023-08-30T03:32:01;15.40;96.70
42031;DHT22;27709;52.036;5.906;2023-08-30T03:34:27;15.40;96.80
42031;DHT22;27709;52.036;5.906;2023-08-30T03:36:53;15.40;96.90
42031;DHT22;27709;52.036;5.906;2023-08-30T03:39:21;15.40;96.90
42031;DHT22;27709;52.036;5.906;2023-08-30T03:41:47;15.50;97.00
42031;DHT22;27709;52.036;5.906;2023-08-30T03:44:13;15.50;96.90
42031;DHT22;27709;52.036;5.906;2023-08-30T03:46:39;15.50;96.90
42031;DHT22;27709;52.036;5.906;2023-08-30T03:49:05;15.40;96.90
42031;DHT22;27709;52.036;5.906;2023-08-30T03:51:30;15.40;96.90
42031;DHT22;27709;52.036;5.906;2023-08-30T03:53:56;15.30;96.90
42031;DHT22;27709;52.036;5.906;2023-08-30T03:56:22;15.30;97.00
42031;DHT22;27709;52.036;5.906;2023-08-30T03:58:48;15.20;97.20
42031;DHT22;27709;52.036;5.906;2023-08-30T04:01:13;15.10;97.40
42031;DHT22;27709;52.036;5.906;2023-08-30T04:03:39;15.00;97.50
42031;DHT22;27709;52.036;5.906;2023-08-30T04:06:04;14.90;97.80
42031;DHT22;27709;52.036;5.906;2023-08-30T04:08:30;14.80;97.80
42031;DHT22;27709;52.036;5.906;2023-08-30T04:10:55;14.70;97.90
42031;DHT22;27709;52.036;5.906;2023-08-30T04:13:21;14.60;98.00
42031;DHT22;27709;52.036;5.906;2023-08-30T04:15:47;14.50;98.10
42031;DHT22;27709;52.036;5.906;2023-08-30T04:18:13;14.50;98.20
42031;DHT22;27709;52.036;5.906;2023-08-30T04:20:46;14.40;98.30
42031;DHT22;27709;52.036;5.906;2023-08-30T04:23:12;14.30;98.50
42031;DHT22;27709;52.036;5.906;2023-08-30T04:25:38;14.30;98.60
42031;DHT22;27709;52.036;5.906;2023-08-30T04:28:04;14.20;98.60
42031;DHT22;27709;52.036;5.906;2023-08-30T04:30:29;14.20;98.60
42031;DHT22;27709;52.036;5.906;2023-08-30T04:32:55;14.10;98.70
42031;DHT22;27709;52.036;5.906;2023-08-30T04:35:20;14.00;98.80
42031;DHT22;27709;52.036;5.906;2023-08-30T04:37:46;14.00;99.00
42031;DHT22;27709;52.036;5.906;2023-08-30T04:40:13;14.00;99.20
42031;DHT22;27709;52.036;5.906;2023-08-30T04:42:39;14.00;99.30
42031;DHT22;27709;52.036;5.906;2023-08-30T04:45:08;13.90;99.40
42031;DHT22;27709;52.036;5.906;2023-08-30T04:47:35;13.90;99.20
42031;DHT22;27709;52.036;5.906;2023-08-30T04:50:00;13.80;99.30
42031;DHT22;27709;52.036;5.906;2023-08-30T04:52:26;13.80;99.40
42031;DHT22;27709;52.036;5.906;2023-08-30T04:54:51;13.80;99.40
42031;DHT22;27709;52.036;5.906;2023-08-30T04:57:17;13.80;99.50
42031;DHT22;27709;52.036;5.906;2023-08-30T04:59:43;13.80;99.40
42031;DHT22;27709;52.036;5.906;2023-08-30T05:02:09;13.80;99.40
42031;DHT22;27709;52.036;5.906;2023-08-30T05:04:35;13.80;99.40
42031;DHT22;27709;52.036;5.906;2023-08-30T05:07:01;13.80;99.30
42031;DHT22;27709;52.036;5.906;2023-08-30T05:09:27;13.90;99.30
42031;DHT22;27709;52.036;5.906;2023-08-30T05:11:53;13.90;99.20
42031;DHT22;27709;52.036;5.906;2023-08-30T05:14:19;14.00;99.20
42031;DHT22;27709;52.036;5.906;2023-08-30T05:16:44;14.00;99.10
42031;DHT22;27709;52.036;5.906;2023-08-30T05:19:10;14.10;99.00
42031;DHT22;27709;52.036;5.906;2023-08-30T05:21:36;14.10;98.90
42031;DHT22;27709;52.036;5.906;2023-08-30T05:24:02;14.10;98.90
42031;DHT22;27709;52.036;5.906;2023-08-30T05:26:28;14.20;98.90
42031;DHT22;27709;52.036;5.906;2023-08-30T05:28:53;14.20;98.70
42031;DHT22;27709;52.036;5.906;2023-08-30T05:31:19;14.30;98.60
42031;DHT22;27709;52.036;5.906;2023-08-30T05:33:44;14.30;98.60
42031;DHT22;27709;52.036;5.906;2023-08-30T05:36:10;14.40;98.60
42031;DHT22;27709;52.036;5.906;2023-08-30T05:38:35;14.50;98.50
42031;DHT22;27709;52.036;5.906;2023-08-30T05:41:01;14.50;98.50
42031;DHT22;27709;52.036;5.906;2023-08-30T05:43:26;14.60;98.50
42031;DHT22;27709;52.036;5.906;2023-08-30T05:45:52;14.60;98.50
42031;DHT22;27709;52.036;5.906;2023-08-30T05:48:17;14.70;98.30
42031;DHT22;27709;52.036;5.906;2023-08-30T05:50:43;14.80;98.20
42031;DHT22;27709;52.036;5.906;2023-08-30T05:53:10;14.90;98.10
42031;DHT22;27709;52.036;5.906;2023-08-30T05:55:36;15.00;98.10
42031;DHT22;27709;52.036;5.906;2023-08-30T05:58:02;15.10;98.00
42031;DHT22;27709;52.036;5.906;2023-08-30T06:00:28;15.20;98.00
42031;DHT22;27709;52.036;5.906;2023-08-30T06:02:54;15.30;97.90
42031;DHT22;27709;52.036;5.906;2023-08-30T06:05:19;15.40;97.80
42031;DHT22;27709;52.036;5.906;2023-08-30T06:07:45;15.50;97.70
42031;DHT22;27709;52.036;5.906;2023-08-30T06:10:10;15.70;97.60
42031;DHT22;27709;52.036;5.906;2023-08-30T06:12:36;15.80;97.40
42031;DHT22;27709;52.036;5.906;2023-08-30T06:15:02;15.90;97.20
42031;DHT22;27709;52.036;5.906;2023-08-30T06:17:29;16.10;97.10
42031;DHT22;27709;52.036;5.906;2023-08-30T06:19:54;16.30;96.90
42031;DHT22;27709;52.036;5.906;2023-08-30T06:22:20;16.50;96.60
42031;DHT22;27709;52.036;5.906;2023-08-30T06:24:45;16.60;96.40
42031;DHT22;27709;52.036;5.906;2023-08-30T06:27:11;16.70;96.30
42031;DHT22;27709;52.036;5.906;2023-08-30T06:29:36;16.80;96.00
42031;DHT22;27709;52.036;5.906;2023-08-30T06:32:02;16.90;95.90
42031;DHT22;27709;52.036;5.906;2023-08-30T06:34:28;16.90;95.90
42031;DHT22;27709;52.036;5.906;2023-08-30T06:36:53;16.80;96.00
42031;DHT22;27709;52.036;5.906;2023-08-30T06:39:20;16.70;96.20
42031;DHT22;27709;52.036;5.906;2023-08-30T06:41:45;16.60;96.40
42031;DHT22;27709;52.036;5.906;2023-08-30T06:44:11;16.50;96.60
42031;DHT22;27709;52.036;5.906;2023-08-30T06:46:36;16.50;96.70
42031;DHT22;27709;52.036;5.906;2023-08-30T06:49:03;16.50;96.80
42031;DHT22;27709;52.036;5.906;2023-08-30T06:51:29;16.50;96.90
42031;DHT22;27709;52.036;5.906;2023-08-30T06:53:54;16.50;96.90
42031;DHT22;27709;52.036;5.906;2023-08-30T06:56:22;16.50;97.00
42031;DHT22;27709;52.036;5.906;2023-08-30T06:58:49;16.50;97.00
42031;DHT22;27709;52.036;5.906;2023-08-30T07:01:14;16.60;97.00
42031;DHT22;27709;52.036;5.906;2023-08-30T07:03:43;16.60;97.10
42031;DHT22;27709;52.036;5.906;2023-08-30T07:06:09;16.60;96.90
42031;DHT22;27709;52.036;5.906;2023-08-30T07:08:35;16.60;96.90
42031;DHT22;27709;52.036;5.906;2023-08-30T07:13:45;16.70;96.90
42031;DHT22;27709;52.036;5.906;2023-08-30T07:16:13;16.70;96.90
42031;DHT22;27709;52.036;5.906;2023-08-30T07:18:40;16.60;96.90
42031;DHT22;27709;52.036;5.906;2023-08-30T07:21:06;16.60;97.00
42031;DHT22;27709;52.036;5.906;2023-08-30T07:23:31;16.60;97.10
42031;DHT22;27709;52.036;5.906;2023-08-30T07:25:57;16.70;97.20
42031;DHT22;27709;52.036;5.906;2023-08-30T07:28:22;16.70;97.30
42031;DHT22;27709;52.036;5.906;2023-08-30T07:30:48;16.70;97.40
42031;DHT22;27709;52.036;5.906;2023-08-30T07:33:13;16.60;97.60
42031;DHT22;27709;52.036;5.906;2023-08-30T07:35:39;16.50;97.90
42031;DHT22;27709;52.036;5.906;2023-08-30T07:38:05;16.50;98.10
42031;DHT22;27709;52.036;5.906;2023-08-30T07:40:31;16.50;98.40
42031;DHT22;27709;52.036;5.906;2023-08-30T07:42:56;16.30;98.50
42031;DHT22;27709;52.036;5.906;2023-08-30T07:45:22;16.30;98.80
42031;DHT22;27709;52.036;5.906;2023-08-30T07:47:47;16.20;98.90
42031;DHT22;27709;52.036;5.906;2023-08-30T07:50:13;16.20;99.10
42031;DHT22;27709;52.036;5.906;2023-08-30T07:52:38;16.20;99.30
42031;DHT22;27709;52.036;5.906;2023-08-30T07:55:04;16.20;99.30
42031;DHT22;27709;52.036;5.906;2023-08-30T07:57:29;16.10;99.50
42031;DHT22;27709;52.036;5.906;2023-08-30T07:59:55;16.10;99.60
42031;DHT22;27709;52.036;5.906;2023-08-30T08:02:21;16.00;99.80
42031;DHT22;27709;52.036;5.906;2023-08-30T08:04:46;16.00;99.90
42031;DHT22;27709;52.036;5.906;2023-08-30T08:07:12;16.00;99.90
42031;DHT22;27709;52.036;5.906;2023-08-30T08:09:39;16.00;99.90
42031;DHT22;27709;52.036;5.906;2023-08-30T08:12:07;16.00;99.90
42031;DHT22;27709;52.036;5.906;2023-08-30T08:14:33;16.00;99.90
42031;DHT22;27709;52.036;5.906;2023-08-30T08:16:59;15.90;99.90
42031;DHT22;27709;52.036;5.906;2023-08-30T08:19:25;16.00;99.90
42031;DHT22;27709;52.036;5.906;2023-08-30T08:21:50;15.90;99.90
42031;DHT22;27709;52.036;5.906;2023-08-30T08:24:18;15.80;99.90
42031;DHT22;27709;52.036;5.906;2023-08-30T08:26:44;15.80;99.90
42031;DHT22;27709;52.036;5.906;2023-08-30T08:29:09;15.80;99.90
42031;DHT22;27709;52.036;5.906;2023-08-30T08:31:35;15.80;99.90
42031;DHT22;27709;52.036;5.906;2023-08-30T08:34:12;15.70;99.90
42031;DHT22;27709;52.036;5.906;2023-08-30T08:36:38;15.70;99.90
42031;DHT22;27709;52.036;5.906;2023-08-30T08:39:04;15.70;99.90
42031;DHT22;27709;52.036;5.906;2023-08-30T08:41:39;15.70;99.90
42031;DHT22;27709;52.036;5.906;2023-08-30T08:44:06;15.70;99.90
42031;DHT22;27709;52.036;5.906;2023-08-30T08:46:36;15.80;99.90
42031;DHT22;27709;52.036;5.906;2023-08-30T08:49:14;15.80;99.90
42031;DHT22;27709;52.036;5.906;2023-08-30T08:51:40;15.90;99.90
42031;DHT22;27709;52.036;5.906;2023-08-30T08:54:07;15.90;99.90
42031;DHT22;27709;52.036;5.906;2023-08-30T08:56:35;15.90;99.90
42031;DHT22;27709;52.036;5.906;2023-08-30T08:59:01;15.80;99.90
42031;DHT22;27709;52.036;5.906;2023-08-30T09:01:28;15.90;99.90
42031;DHT22;27709;52.036;5.906;2023-08-30T09:03:54;15.80;99.90
42031;DHT22;27709;52.036;5.906;2023-08-30T09:06:21;15.90;99.90
42031;DHT22;27709;52.036;5.906;2023-08-30T09:08:48;16.00;99.90
42031;DHT22;27709;52.036;5.906;2023-08-30T09:11:14;16.00;99.90
42031;DHT22;27709;52.036;5.906;2023-08-30T09:13:42;16.00;99.90
42031;DHT22;27709;52.036;5.906;2023-08-30T09:16:16;15.90;99.90
42031;DHT22;27709;52.036;5.906;2023-08-30T09:18:42;15.80;99.90
42031;DHT22;27709;52.036;5.906;2023-08-30T09:21:09;15.80;99.90
42031;DHT22;27709;52.036;5.906;2023-08-30T09:23:35;15.90;99.90
42031;DHT22;27709;52.036;5.906;2023-08-30T09:26:01;15.90;99.90
42031;DHT22;27709;52.036;5.906;2023-08-30T09:28:28;15.90;99.90
42031;DHT22;27709;52.036;5.906;2023-08-30T09:30:54;16.00;99.90
42031;DHT22;27709;52.036;5.906;2023-08-30T09:33:23;16.10;99.90
42031;DHT22;27709;52.036;5.906;2023-08-30T09:35:57;16.10;99.90
42031;DHT22;27709;52.036;5.906;2023-08-30T09:38:25;16.10;99.90
42031;DHT22;27709;52.036;5.906;2023-08-30T09:40:51;16.10;99.90
42031;DHT22;27709;52.036;5.906;2023-08-30T09:43:20;16.00;99.90
42031;DHT22;27709;52.036;5.906;2023-08-30T09:45:50;16.00;99.90
42031;DHT22;27709;52.036;5.906;2023-08-30T09:48:20;16.10;99.90
42031;DHT22;27709;52.036;5.906;2023-08-30T09:50:47;16.10;99.90
42031;DHT22;27709;52.036;5.906;2023-08-30T09:53:18;16.10;99.90
42031;DHT22;27709;52.036;5.906;2023-08-30T09:55:48;16.20;99.90
42031;DHT22;27709;52.036;5.906;2023-08-30T09:58:15;16.30;99.90
42031;DHT22;27709;52.036;5.906;2023-08-30T10:00:41;16.30;99.90
42031;DHT22;27709;52.036;5.906;2023-08-30T10:03:08;16.40;99.90
42031;DHT22;27709;52.036;5.906;2023-08-30T10:05:35;16.40;99.90
42031;DHT22;27709;52.036;5.906;2023-08-30T10:08:02;16.50;99.90
42031;DHT22;27709;52.036;5.906;2023-08-30T10:10:30;16.60;99.90
42031;DHT22;27709;52.036;5.906;2023-08-30T10:12:56;16.60;99.90
42031;DHT22;27709;52.036;5.906;2023-08-30T10:15:23;16.70;99.90
42031;DHT22;27709;52.036;5.906;2023-08-30T10:17:57;16.80;99.90
42031;DHT22;27709;52.036;5.906;2023-08-30T10:20:23;16.70;99.90
42031;DHT22;27709;52.036;5.906;2023-08-30T10:22:50;16.70;99.90
42031;DHT22;27709;52.036;5.906;2023-08-30T10:25:21;16.80;99.90
42031;DHT22;27709;52.036;5.906;2023-08-30T10:27:48;16.90;99.90
42031;DHT22;27709;52.036;5.906;2023-08-30T10:30:16;17.20;99.90
42031;DHT22;27709;52.036;5.906;2023-08-30T10:32:44;17.40;99.90
42031;DHT22;27709;52.036;5.906;2023-08-30T10:35:12;17.60;99.90
42031;DHT22;27709;52.036;5.906;2023-08-30T10:37:41;17.80;99.90
42031;DHT22;27709;52.036;5.906;2023-08-30T10:40:08;18.10;99.90
42031;DHT22;27709;52.036;5.906;2023-08-30T10:42:33;18.20;99.90
42031;DHT22;27709;52.036;5.906;2023-08-30T10:45:07;18.30;99.90
42031;DHT22;27709;52.036;5.906;2023-08-30T10:47:36;18.50;99.90
42031;DHT22;27709;52.036;5.906;2023-08-30T10:50:29;18.50;99.90
42031;DHT22;27709;52.036;5.906;2023-08-30T10:52:58;18.50;99.90
42031;DHT22;27709;52.036;5.906;2023-08-30T10:55:24;18.50;99.90
42031;DHT22;27709;52.036;5.906;2023-08-30T10:58:01;18.50;99.90
42031;DHT22;27709;52.036;5.906;2023-08-30T11:00:29;18.60;99.90
42031;DHT22;27709;52.036;5.906;2023-08-30T11:02:55;18.60;99.90
42031;DHT22;27709;52.036;5.906;2023-08-30T11:05:23;18.70;99.90
42031;DHT22;27709;52.036;5.906;2023-08-30T11:07:49;19.00;99.90
42031;DHT22;27709;52.036;5.906;2023-08-30T11:10:16;19.40;99.90
42031;DHT22;27709;52.036;5.906;2023-08-30T11:12:45;19.70;99.90
42031;DHT22;27709;52.036;5.906;2023-08-30T11:15:13;19.90;99.90
42031;DHT22;27709;52.036;5.906;2023-08-30T11:17:39;20.20;99.90
42031;DHT22;27709;52.036;5.906;2023-08-30T11:20:13;20.30;99.60
42031;DHT22;27709;52.036;5.906;2023-08-30T11:22:44;20.30;99.40
42031;DHT22;27709;52.036;5.906;2023-08-30T11:25:11;20.20;99.30
42031;DHT22;27709;52.036;5.906;2023-08-30T11:27:38;20.00;99.30
42031;DHT22;27709;52.036;5.906;2023-08-30T11:30:05;19.90;99.40
42031;DHT22;27709;52.036;5.906;2023-08-30T11:32:37;20.00;99.60
42031;DHT22;27709;52.036;5.906;2023-08-30T11:35:05;20.10;99.10
42031;DHT22;27709;52.036;5.906;2023-08-30T11:37:34;20.30;98.80
42031;DHT22;27709;52.036;5.906;2023-08-30T11:40:02;20.30;98.40
42031;DHT22;27709;52.036;5.906;2023-08-30T11:42:30;20.30;98.20
42031;DHT22;27709;52.036;5.906;2023-08-30T11:44:55;20.30;97.80
42031;DHT22;27709;52.036;5.906;2023-08-30T11:47:24;20.20;97.80
42031;DHT22;27709;52.036;5.906;2023-08-30T11:49:52;20.30;97.90
42031;DHT22;27709;52.036;5.906;2023-08-30T11:52:21;20.40;97.70
42031;DHT22;27709;52.036;5.906;2023-08-30T11:54:49;20.50;97.10
42031;DHT22;27709;52.036;5.906;2023-08-30T11:57:15;20.60;96.90
42031;DHT22;27709;52.036;5.906;2023-08-30T11:59:40;20.90;96.60
42031;DHT22;27709;52.036;5.906;2023-08-30T12:02:07;21.30;96.70
42031;DHT22;27709;52.036;5.906;2023-08-30T12:04:42;21.80;96.00
42031;DHT22;27709;52.036;5.906;2023-08-30T12:07:08;22.00;95.10
42031;DHT22;27709;52.036;5.906;2023-08-30T12:09:34;22.00;94.70
42031;DHT22;27709;52.036;5.906;2023-08-30T12:12:13;22.00;94.40
42031;DHT22;27709;52.036;5.906;2023-08-30T12:14:39;22.10;94.50
42031;DHT22;27709;52.036;5.906;2023-08-30T12:17:05;22.00;94.00
42031;DHT22;27709;52.036;5.906;2023-08-30T12:19:34;21.90;94.00
42031;DHT22;27709;52.036;5.906;2023-08-30T12:22:07;21.80;94.10
42031;DHT22;27709;52.036;5.906;2023-08-30T12:24:45;21.70;94.20
42031;DHT22;27709;52.036;5.906;2023-08-30T12:27:11;21.60;94.10
42031;DHT22;27709;52.036;5.906;2023-08-30T12:29:36;21.40;93.70
42031;DHT22;27709;52.036;5.906;2023-08-30T12:32:02;21.30;93.60
42031;DHT22;27709;52.036;5.906;2023-08-30T12:34:38;21.10;93.70
42031;DHT22;27709;52.036;5.906;2023-08-30T12:37:06;21.10;93.90
42031;DHT22;27709;52.036;5.906;2023-08-30T12:39:32;21.10;94.20
42031;DHT22;27709;52.036;5.906;2023-08-30T12:41:57;21.20;94.40
42031;DHT22;27709;52.036;5.906;2023-08-30T12:44:23;21.20;94.40
42031;DHT22;27709;52.036;5.906;2023-08-30T12:46:48;21.20;94.20
42031;DHT22;27709;52.036;5.906;2023-08-30T12:49:15;21.30;94.20
42031;DHT22;27709;52.036;5.906;2023-08-30T12:51:41;21.60;94.00
42031;DHT22;27709;52.036;5.906;2023-08-30T12:54:06;21.80;93.60
42031;DHT22;27709;52.036;5.906;2023-08-30T12:56:32;21.90;92.70
42031;DHT22;27709;52.036;5.906;2023-08-30T12:58:57;21.90;92.50
42031;DHT22;27709;52.036;5.906;2023-08-30T13:01:23;22.00;92.90
42031;DHT22;27709;52.036;5.906;2023-08-30T13:03:49;22.30;92.70
42031;DHT22;27709;52.036;5.906;2023-08-30T13:06:15;22.50;92.40
42031;DHT22;27709;52.036;5.906;2023-08-30T13:08:40;22.30;92.60
42031;DHT22;27709;52.036;5.906;2023-08-30T13:11:06;22.10;92.60
42031;DHT22;27709;52.036;5.906;2023-08-30T13:13:31;21.80;92.40
42031;DHT22;27709;52.036;5.906;2023-08-30T13:15:57;21.70;92.10
42031;DHT22;27709;52.036;5.906;2023-08-30T13:18:22;21.50;91.90
42031;DHT22;27709;52.036;5.906;2023-08-30T13:20:56;21.60;91.70
42031;DHT22;27709;52.036;5.906;2023-08-30T13:23:21;21.70;91.70
42031;DHT22;27709;52.036;5.906;2023-08-30T13:25:47;21.80;91.50
42031;DHT22;27709;52.036;5.906;2023-08-30T13:28:14;21.90;91.80
42031;DHT22;27709;52.036;5.906;2023-08-30T13:30:46;22.00;91.90
42031;DHT22;27709;52.036;5.906;2023-08-30T13:33:13;22.10;91.90
42031;DHT22;27709;52.036;5.906;2023-08-30T13:35:39;22.00;91.30
42031;DHT22;27709;52.036;5.906;2023-08-30T13:38:05;21.90;91.30
42031;DHT22;27709;52.036;5.906;2023-08-30T13:40:30;21.80;91.60
42031;DHT22;27709;52.036;5.906;2023-08-30T13:42:56;21.70;91.60
42031;DHT22;27709;52.036;5.906;2023-08-30T13:45:21;21.80;92.10
42031;DHT22;27709;52.036;5.906;2023-08-30T13:47:47;21.70;92.20
42031;DHT22;27709;52.036;5.906;2023-08-30T13:50:15;21.60;91.70
42031;DHT22;27709;52.036;5.906;2023-08-30T13:52:52;21.50;91.20
42031;DHT22;27709;52.036;5.906;2023-08-30T13:55:18;21.40;91.20
42031;DHT22;27709;52.036;5.906;2023-08-30T13:57:46;21.30;91.50
42031;DHT22;27709;52.036;5.906;2023-08-30T14:00:13;21.30;91.20
42031;DHT22;27709;52.036;5.906;2023-08-30T14:02:39;21.50;90.90
42031;DHT22;27709;52.036;5.906;2023-08-30T14:05:05;21.60;90.60
42031;DHT22;27709;52.036;5.906;2023-08-30T14:07:34;21.60;89.40
42031;DHT22;27709;52.036;5.906;2023-08-30T14:10:00;21.70;88.10
42031;DHT22;27709;52.036;5.906;2023-08-30T14:12:26;21.80;87.40
42031;DHT22;27709;52.036;5.906;2023-08-30T14:14:51;22.00;88.00
42031;DHT22;27709;52.036;5.906;2023-08-30T14:17:18;22.10;86.20
42031;DHT22;27709;52.036;5.906;2023-08-30T14:19:44;22.20;87.30
42031;DHT22;27709;52.036;5.906;2023-08-30T14:22:09;22.10;87.40
42031;DHT22;27709;52.036;5.906;2023-08-30T14:24:38;22.00;86.00
42031;DHT22;27709;52.036;5.906;2023-08-30T14:27:07;21.70;86.30
42031;DHT22;27709;52.036;5.906;2023-08-30T14:29:34;21.50;86.90
42031;DHT22;27709;52.036;5.906;2023-08-30T14:32:04;21.40;87.20
42031;DHT22;27709;52.036;5.906;2023-08-30T14:34:29;21.30;88.10
42031;DHT22;27709;52.036;5.906;2023-08-30T14:36:55;21.20;88.20
42031;DHT22;27709;52.036;5.906;2023-08-30T14:39:21;21.20;88.40
42031;DHT22;27709;52.036;5.906;2023-08-30T14:41:47;21.00;88.80
42031;DHT22;27709;52.036;5.906;2023-08-30T14:44:12;21.00;88.10
42031;DHT22;27709;52.036;5.906;2023-08-30T14:46:38;20.90;88.40
42031;DHT22;27709;52.036;5.906;2023-08-30T14:49:03;20.90;89.00
42031;DHT22;27709;52.036;5.906;2023-08-30T14:51:29;21.00;88.40
42031;DHT22;27709;52.036;5.906;2023-08-30T14:53:54;21.10;87.90
42031;DHT22;27709;52.036;5.906;2023-08-30T14:56:21;21.10;87.60
42031;DHT22;27709;52.036;5.906;2023-08-30T14:58:47;21.20;87.10
42031;DHT22;27709;52.036;5.906;2023-08-30T15:01:15;21.10;86.70
42031;DHT22;27709;52.036;5.906;2023-08-30T15:03:41;21.20;87.30
42031;DHT22;27709;52.036;5.906;2023-08-30T15:06:09;21.10;87.10
42031;DHT22;27709;52.036;5.906;2023-08-30T15:08:35;20.90;88.30
42031;DHT22;27709;52.036;5.906;2023-08-30T15:11:01;20.80;89.20
42031;DHT22;27709;52.036;5.906;2023-08-30T15:13:30;20.60;90.00
42031;DHT22;27709;52.036;5.906;2023-08-30T15:16:03;20.50;90.20
42031;DHT22;27709;52.036;5.906;2023-08-30T15:18:36;20.50;90.50
42031;DHT22;27709;52.036;5.906;2023-08-30T15:21:04;20.40;90.80
42031;DHT22;27709;52.036;5.906;2023-08-30T15:23:30;20.30;90.70
42031;DHT22;27709;52.036;5.906;2023-08-30T15:25:55;20.30;90.60
42031;DHT22;27709;52.036;5.906;2023-08-30T15:28:21;20.20;90.90
42031;DHT22;27709;52.036;5.906;2023-08-30T15:30:47;20.30;91.40
42031;DHT22;27709;52.036;5.906;2023-08-30T15:33:16;20.40;91.40